sensor_id;sensor_type;location;lat;lon;timestamp;P1;durP1;ratioP1;P2;durP2;ratioP2
253;SDS011;590;48.772;8.846;2023-03-23T00:00:05;2.40;;;2.20;;
253;SDS011;590;48.772;8.846;2023-03-23T00:02:35;2.90;;;2.70;;
253;SDS011;590;48.772;8.846;2023-03-23T00:05:05;2.80;;;2.60;;
253;SDS011;590;48.772;8.846;2023-03-23T00:07:33;3.20;;;3.00;;
253;SDS011;590;48.772;8.846;2023-03-23T00:10:01;2.63;;;2.43;;
253;SDS011;590;48.772;8.846;2023-03-23T00:12:30;2.60;;;2.50;;
253;SDS011;590;48.772;8.846;2023-03-23T00:14:59;3.20;;;3.00;;
253;SDS011;590;48.772;8.846;2023-03-23T00:17:26;2.60;;;2.40;;
253;SDS011;590;48.772;8.846;2023-03-23T00:19:54;2.77;;;2.57;;
253;SDS011;590;48.772;8.846;2023-03-23T00:22:22;2.53;;;2.33;;
253;SDS011;590;48.772;8.846;2023-03-23T00:24:50;2.77;;;2.57;;
253;SDS011;590;48.772;8.846;2023-03-23T00:27:17;2.60;;;2.40;;
253;SDS011;590;48.772;8.846;2023-03-23T00:29:46;2.57;;;2.37;;
253;SDS011;590;48.772;8.846;2023-03-23T00:32:17;2.50;;;2.30;;
253;SDS011;590;48.772;8.846;2023-03-23T00:34:45;2.40;;;2.20;;
253;SDS011;590;48.772;8.846;2023-03-23T00:37:13;2.60;;;2.40;;
253;SDS011;590;48.772;8.846;2023-03-23T00:39:43;2.23;;;2.03;;
253;SDS011;590;48.772;8.846;2023-03-23T00:42:11;2.37;;;2.20;;
253;SDS011;590;48.772;8.846;2023-03-23T00:44:39;2.13;;;1.97;;
253;SDS011;590;48.772;8.846;2023-03-23T00:47:06;2.63;;;2.43;;
253;SDS011;590;48.772;8.846;2023-03-23T00:49:34;2.50;;;2.30;;
253;SDS011;590;48.772;8.846;2023-03-23T00:52:02;2.60;;;2.40;;
253;SDS011;590;48.772;8.846;2023-03-23T00:54:30;1.97;;;1.90;;
253;SDS011;590;48.772;8.846;2023-03-23T00:56:58;1.80;;;1.70;;
253;SDS011;590;48.772;8.846;2023-03-23T00:59:25;2.80;;;2.60;;
253;SDS011;590;48.772;8.846;2023-03-23T01:01:52;2.47;;;2.27;;
253;SDS011;590;48.772;8.846;2023-03-23T01:04:19;2.50;;;2.30;;
253;SDS011;590;48.772;8.846;2023-03-23T01:06:48;2.13;;;1.97;;
253;SDS011;590;48.772;8.846;2023-03-23T01:09:17;1.90;;;1.80;;
253;SDS011;590;48.772;8.846;2023-03-23T01:11:46;1.77;;;1.67;;
253;SDS011;590;48.772;8.846;2023-03-23T01:14:16;2.00;;;1.90;;
253;SDS011;590;48.772;8.846;2023-03-23T01:16:44;2.50;;;2.30;;
253;SDS011;590;48.772;8.846;2023-03-23T01:19:11;1.90;;;1.80;;
253;SDS011;590;48.772;8.846;2023-03-23T01:21:40;1.80;;;1.70;;
253;SDS011;590;48.772;8.846;2023-03-23T01:24:07;2.47;;;2.27;;
253;SDS011;590;48.772;8.846;2023-03-23T01:26:34;1.70;;;1.60;;
253;SDS011;590;48.772;8.846;2023-03-23T01:29:03;2.00;;;1.90;;
253;SDS011;590;48.772;8.846;2023-03-23T01:31:31;2.00;;;1.80;;
253;SDS011;590;48.772;8.846;2023-03-23T01:33:59;2.27;;;2.07;;
253;SDS011;590;48.772;8.846;2023-03-23T01:36:27;1.80;;;1.70;;
253;SDS011;590;48.772;8.846;2023-03-23T01:38:58;2.20;;;2.00;;
253;SDS011;590;48.772;8.846;2023-03-23T01:41:26;2.37;;;2.17;;
253;SDS011;590;48.772;8.846;2023-03-23T01:43:57;2.13;;;1.97;;
253;SDS011;590;48.772;8.846;2023-03-23T01:46:27;1.70;;;1.60;;
253;SDS011;590;48.772;8.846;2023-03-23T01:48:58;1.90;;;1.80;;
253;SDS011;590;48.772;8.846;2023-03-23T01:51:31;1.63;;;1.53;;
253;SDS011;590;48.772;8.846;2023-03-23T01:54:01;1.97;;;1.87;;
253;SDS011;590;48.772;8.846;2023-03-23T01:56:31;1.97;;;1.87;;
253;SDS011;590;48.772;8.846;2023-03-23T01:59:03;1.60;;;1.50;;
253;SDS011;590;48.772;8.846;2023-03-23T02:01:30;1.97;;;1.87;;
253;SDS011;590;48.772;8.846;2023-03-23T02:04:05;1.67;;;1.57;;
253;SDS011;590;48.772;8.846;2023-03-23T02:06:34;1.67;;;1.57;;
253;SDS011;590;48.772;8.846;2023-03-23T02:09:00;1.80;;;1.70;;
253;SDS011;590;48.772;8.846;2023-03-23T02:11:28;2.00;;;1.90;;
253;SDS011;590;48.772;8.846;2023-03-23T02:13:55;1.80;;;1.70;;
253;SDS011;590;48.772;8.846;2023-03-23T02:16:25;1.63;;;1.53;;
253;SDS011;590;48.772;8.846;2023-03-23T02:19:03;1.93;;;1.83;;
253;SDS011;590;48.772;8.846;2023-03-23T02:21:52;2.80;;;1.60;;
253;SDS011;590;48.772;8.846;2023-03-23T02:27:43;1.57;;;1.47;;
253;SDS011;590;48.772;8.846;2023-03-23T02:30:25;1.47;;;1.37;;
253;SDS011;590;48.772;8.846;2023-03-23T02:35:57;1.60;;;1.50;;
253;SDS011;590;48.772;8.846;2023-03-23T02:38:28;1.63;;;1.53;;
253;SDS011;590;48.772;8.846;2023-03-23T02:40:59;1.77;;;1.67;;
253;SDS011;590;48.772;8.846;2023-03-23T02:43:29;1.80;;;1.70;;
253;SDS011;590;48.772;8.846;2023-03-23T02:45:58;1.33;;;1.23;;
253;SDS011;590;48.772;8.846;2023-03-23T02:48:29;1.50;;;1.40;;
253;SDS011;590;48.772;8.846;2023-03-23T02:50:57;1.83;;;1.73;;
253;SDS011;590;48.772;8.846;2023-03-23T02:53:25;1.37;;;1.27;;
253;SDS011;590;48.772;8.846;2023-03-23T02:55:54;1.37;;;1.27;;
253;SDS011;590;48.772;8.846;2023-03-23T02:58:24;1.70;;;1.60;;
253;SDS011;590;48.772;8.846;2023-03-23T03:00:51;1.70;;;1.60;;
253;SDS011;590;48.772;8.846;2023-03-23T03:03:19;1.30;;;1.20;;
253;SDS011;590;48.772;8.846;2023-03-23T03:05:51;1.30;;;1.20;;
253;SDS011;590;48.772;8.846;2023-03-23T03:08:30;1.40;;;1.30;;
253;SDS011;590;48.772;8.846;2023-03-23T03:11:06;1.20;;;1.10;;
253;SDS011;590;48.772;8.846;2023-03-23T03:13:36;1.50;;;1.40;;
253;SDS011;590;48.772;8.846;2023-03-23T03:16:16;1.50;;;1.40;;
253;SDS011;590;48.772;8.846;2023-03-23T03:18:51;1.80;;;1.70;;
253;SDS011;590;48.772;8.846;2023-03-23T03:21:25;1.40;;;1.30;;
253;SDS011;590;48.772;8.846;2023-03-23T03:23:54;1.47;;;1.37;;
253;SDS011;590;48.772;8.846;2023-03-23T03:26:26;1.60;;;1.50;;
253;SDS011;590;48.772;8.846;2023-03-23T03:28:53;1.97;;;1.87;;
253;SDS011;590;48.772;8.846;2023-03-23T03:31:22;1.30;;;1.20;;
253;SDS011;590;48.772;8.846;2023-03-23T03:33:53;1.33;;;1.23;;
253;SDS011;590;48.772;8.846;2023-03-23T03:36:22;2.27;;;2.07;;
253;SDS011;590;48.772;8.846;2023-03-23T03:38:53;1.50;;;1.40;;
253;SDS011;590;48.772;8.846;2023-03-23T03:41:22;1.50;;;1.40;;
253;SDS011;590;48.772;8.846;2023-03-23T03:43:49;1.47;;;1.37;;
253;SDS011;590;48.772;8.846;2023-03-23T03:46:16;1.73;;;1.63;;
253;SDS011;590;48.772;8.846;2023-03-23T03:48:43;1.40;;;1.30;;
253;SDS011;590;48.772;8.846;2023-03-23T03:51:09;1.40;;;1.30;;
253;SDS011;590;48.772;8.846;2023-03-23T03:53:38;1.50;;;1.40;;
253;SDS011;590;48.772;8.846;2023-03-23T03:56:05;1.30;;;1.20;;
253;SDS011;590;48.772;8.846;2023-03-23T03:58:32;1.70;;;1.60;;
253;SDS011;590;48.772;8.846;2023-03-23T04:01:01;1.33;;;1.23;;
253;SDS011;590;48.772;8.846;2023-03-23T04:03:28;1.33;;;1.30;;
253;SDS011;590;48.772;8.846;2023-03-23T04:05:55;1.50;;;1.40;;
253;SDS011;590;48.772;8.846;2023-03-23T04:08:24;1.67;;;1.57;;
253;SDS011;590;48.772;8.846;2023-03-23T04:10:53;1.57;;;1.50;;
253;SDS011;590;48.772;8.846;2023-03-23T04:13:20;1.40;;;1.30;;
253;SDS011;590;48.772;8.846;2023-03-23T04:15:47;1.10;;;1.00;;
253;SDS011;590;48.772;8.846;2023-03-23T04:18:15;1.50;;;1.40;;
253;SDS011;590;48.772;8.846;2023-03-23T04:20:43;1.77;;;1.67;;
253;SDS011;590;48.772;8.846;2023-03-23T04:23:12;1.43;;;1.33;;
253;SDS011;590;48.772;8.846;2023-03-23T04:25:39;1.60;;;1.50;;
253;SDS011;590;48.772;8.846;2023-03-23T04:28:08;1.00;;;0.90;;
253;SDS011;590;48.772;8.846;2023-03-23T04:30:35;1.37;;;1.30;;
253;SDS011;590;48.772;8.846;2023-03-23T04:33:02;1.60;;;1.50;;
253;SDS011;590;48.772;8.846;2023-03-23T04:35:29;1.23;;;1.13;;
253;SDS011;590;48.772;8.846;2023-03-23T04:37:56;1.37;;;1.27;;
253;SDS011;590;48.772;8.846;2023-03-23T04:40:23;1.30;;;1.20;;
253;SDS011;590;48.772;8.846;2023-03-23T04:42:50;1.20;;;1.10;;
253;SDS011;590;48.772;8.846;2023-03-23T04:45:24;1.47;;;1.37;;
253;SDS011;590;48.772;8.846;2023-03-23T04:47:51;1.13;;;1.03;;
253;SDS011;590;48.772;8.846;2023-03-23T04:50:22;1.70;;;1.57;;
253;SDS011;590;48.772;8.846;2023-03-23T04:52:51;1.40;;;1.30;;
253;SDS011;590;48.772;8.846;2023-03-23T04:55:19;1.47;;;1.30;;
253;SDS011;590;48.772;8.846;2023-03-23T04:57:47;1.13;;;1.10;;
253;SDS011;590;48.772;8.846;2023-03-23T05:00:14;1.77;;;1.67;;
253;SDS011;590;48.772;8.846;2023-03-23T05:02:43;1.27;;;1.17;;
253;SDS011;590;48.772;8.846;2023-03-23T05:05:12;1.10;;;1.00;;
253;SDS011;590;48.772;8.846;2023-03-23T05:07:40;1.10;;;1.00;;
253;SDS011;590;48.772;8.846;2023-03-23T05:10:08;1.20;;;1.10;;
253;SDS011;590;48.772;8.846;2023-03-23T05:12:37;1.40;;;1.30;;
253;SDS011;590;48.772;8.846;2023-03-23T05:15:05;1.30;;;1.20;;
253;SDS011;590;48.772;8.846;2023-03-23T05:17:33;1.10;;;1.00;;
253;SDS011;590;48.772;8.846;2023-03-23T05:20:03;1.00;;;0.90;;
253;SDS011;590;48.772;8.846;2023-03-23T05:22:33;1.20;;;1.10;;
253;SDS011;590;48.772;8.846;2023-03-23T05:25:01;1.40;;;1.30;;
253;SDS011;590;48.772;8.846;2023-03-23T05:27:29;1.40;;;1.33;;
253;SDS011;590;48.772;8.846;2023-03-23T05:29:57;1.30;;;1.20;;
253;SDS011;590;48.772;8.846;2023-03-23T05:32:25;1.37;;;1.27;;
253;SDS011;590;48.772;8.846;2023-03-23T05:34:54;1.17;;;1.07;;
253;SDS011;590;48.772;8.846;2023-03-23T05:37:23;1.20;;;1.10;;
253;SDS011;590;48.772;8.846;2023-03-23T05:39:51;0.83;;;0.80;;
253;SDS011;590;48.772;8.846;2023-03-23T05:42:20;1.30;;;1.20;;
253;SDS011;590;48.772;8.846;2023-03-23T05:44:47;1.70;;;1.30;;
253;SDS011;590;48.772;8.846;2023-03-23T05:47:14;1.27;;;1.17;;
253;SDS011;590;48.772;8.846;2023-03-23T05:49:42;1.47;;;1.37;;
253;SDS011;590;48.772;8.846;2023-03-23T05:52:09;1.50;;;1.27;;
253;SDS011;590;48.772;8.846;2023-03-23T05:54:37;1.57;;;1.50;;
253;SDS011;590;48.772;8.846;2023-03-23T05:57:04;1.40;;;1.37;;
253;SDS011;590;48.772;8.846;2023-03-23T05:59:31;2.00;;;1.30;;
253;SDS011;590;48.772;8.846;2023-03-23T06:01:59;1.53;;;1.43;;
253;SDS011;590;48.772;8.846;2023-03-23T06:04:26;1.17;;;1.07;;
253;SDS011;590;48.772;8.846;2023-03-23T06:06:53;1.37;;;1.27;;
253;SDS011;590;48.772;8.846;2023-03-23T06:09:21;1.20;;;1.10;;
253;SDS011;590;48.772;8.846;2023-03-23T06:11:49;1.63;;;1.53;;
253;SDS011;590;48.772;8.846;2023-03-23T06:14:17;1.00;;;0.90;;
253;SDS011;590;48.772;8.846;2023-03-23T06:16:44;1.60;;;1.50;;
253;SDS011;590;48.772;8.846;2023-03-23T06:19:11;1.30;;;1.20;;
253;SDS011;590;48.772;8.846;2023-03-23T06:21:38;1.43;;;1.33;;
253;SDS011;590;48.772;8.846;2023-03-23T06:24:05;1.13;;;1.03;;
253;SDS011;590;48.772;8.846;2023-03-23T06:26:34;1.50;;;1.20;;
253;SDS011;590;48.772;8.846;2023-03-23T06:29:04;1.30;;;1.20;;
253;SDS011;590;48.772;8.846;2023-03-23T06:31:36;1.40;;;1.30;;
253;SDS011;590;48.772;8.846;2023-03-23T06:34:05;1.17;;;1.07;;
253;SDS011;590;48.772;8.846;2023-03-23T06:36:32;1.50;;;1.40;;
253;SDS011;590;48.772;8.846;2023-03-23T06:38:59;1.03;;;0.93;;
253;SDS011;590;48.772;8.846;2023-03-23T06:41:26;1.20;;;1.10;;
253;SDS011;590;48.772;8.846;2023-03-23T06:43:53;1.33;;;1.23;;
253;SDS011;590;48.772;8.846;2023-03-23T06:46:21;1.40;;;1.30;;
253;SDS011;590;48.772;8.846;2023-03-23T06:48:48;1.47;;;1.37;;
253;SDS011;590;48.772;8.846;2023-03-23T06:51:15;1.63;;;1.60;;
253;SDS011;590;48.772;8.846;2023-03-23T06:53:42;1.20;;;1.10;;
253;SDS011;590;48.772;8.846;2023-03-23T06:56:09;1.20;;;1.10;;
253;SDS011;590;48.772;8.846;2023-03-23T06:58:38;1.40;;;1.30;;
253;SDS011;590;48.772;8.846;2023-03-23T07:01:05;1.33;;;1.23;;
253;SDS011;590;48.772;8.846;2023-03-23T07:03:34;1.00;;;0.90;;
253;SDS011;590;48.772;8.846;2023-03-23T07:06:02;1.17;;;1.13;;
253;SDS011;590;48.772;8.846;2023-03-23T07:08:29;1.30;;;1.20;;
253;SDS011;590;48.772;8.846;2023-03-23T07:10:56;1.47;;;1.30;;
253;SDS011;590;48.772;8.846;2023-03-23T07:13:23;1.37;;;1.27;;
253;SDS011;590;48.772;8.846;2023-03-23T07:15:51;1.43;;;1.33;;
253;SDS011;590;48.772;8.846;2023-03-23T07:18:19;1.20;;;1.10;;
253;SDS011;590;48.772;8.846;2023-03-23T07:20:49;1.43;;;1.33;;
253;SDS011;590;48.772;8.846;2023-03-23T07:23:17;1.30;;;1.20;;
253;SDS011;590;48.772;8.846;2023-03-23T07:25:44;1.30;;;1.20;;
253;SDS011;590;48.772;8.846;2023-03-23T07:28:14;1.43;;;1.33;;
253;SDS011;590;48.772;8.846;2023-03-23T07:30:42;1.30;;;1.20;;
253;SDS011;590;48.772;8.846;2023-03-23T07:33:09;1.20;;;1.10;;
253;SDS011;590;48.772;8.846;2023-03-23T07:35:36;1.20;;;1.10;;
253;SDS011;590;48.772;8.846;2023-03-23T07:38:05;1.50;;;1.40;;
253;SDS011;590;48.772;8.846;2023-03-23T07:40:33;1.30;;;1.20;;
253;SDS011;590;48.772;8.846;2023-03-23T07:43:01;1.50;;;1.40;;
253;SDS011;590;48.772;8.846;2023-03-23T07:45:29;1.30;;;1.20;;
253;SDS011;590;48.772;8.846;2023-03-23T07:47:57;1.10;;;1.00;;
253;SDS011;590;48.772;8.846;2023-03-23T07:50:24;1.43;;;1.33;;
253;SDS011;590;48.772;8.846;2023-03-23T07:52:53;1.27;;;1.20;;
253;SDS011;590;48.772;8.846;2023-03-23T07:55:22;1.20;;;1.10;;
253;SDS011;590;48.772;8.846;2023-03-23T07:57:50;1.00;;;0.90;;
253;SDS011;590;48.772;8.846;2023-03-23T08:00:18;1.87;;;0.97;;
253;SDS011;590;48.772;8.846;2023-03-23T08:02:49;1.37;;;1.27;;
253;SDS011;590;48.772;8.846;2023-03-23T08:05:17;1.10;;;1.00;;
253;SDS011;590;48.772;8.846;2023-03-23T08:07:47;1.60;;;1.40;;
253;SDS011;590;48.772;8.846;2023-03-23T08:10:15;1.40;;;1.40;;
253;SDS011;590;48.772;8.846;2023-03-23T08:12:44;1.30;;;1.20;;
253;SDS011;590;48.772;8.846;2023-03-23T08:15:12;1.20;;;1.10;;
253;SDS011;590;48.772;8.846;2023-03-23T08:17:40;1.27;;;1.20;;
253;SDS011;590;48.772;8.846;2023-03-23T08:20:09;1.20;;;1.10;;
253;SDS011;590;48.772;8.846;2023-03-23T08:22:38;1.13;;;1.10;;
253;SDS011;590;48.772;8.846;2023-03-23T08:25:07;1.37;;;1.27;;
253;SDS011;590;48.772;8.846;2023-03-23T08:27:35;1.30;;;1.20;;
253;SDS011;590;48.772;8.846;2023-03-23T08:30:04;1.10;;;1.00;;
253;SDS011;590;48.772;8.846;2023-03-23T08:32:32;1.30;;;1.20;;
253;SDS011;590;48.772;8.846;2023-03-23T08:35:00;1.37;;;1.13;;
253;SDS011;590;48.772;8.846;2023-03-23T08:37:28;1.37;;;1.37;;
253;SDS011;590;48.772;8.846;2023-03-23T08:39:55;1.30;;;1.20;;
253;SDS011;590;48.772;8.846;2023-03-23T08:42:23;1.47;;;1.43;;
253;SDS011;590;48.772;8.846;2023-03-23T08:45:06;1.33;;;1.23;;
253;SDS011;590;48.772;8.846;2023-03-23T08:47:35;1.67;;;1.57;;
253;SDS011;590;48.772;8.846;2023-03-23T08:50:03;1.03;;;0.97;;
253;SDS011;590;48.772;8.846;2023-03-23T08:52:31;1.30;;;1.30;;
253;SDS011;590;48.772;8.846;2023-03-23T08:54:58;1.20;;;1.10;;
253;SDS011;590;48.772;8.846;2023-03-23T08:57:25;1.20;;;1.10;;
253;SDS011;590;48.772;8.846;2023-03-23T08:59:54;1.20;;;1.10;;
253;SDS011;590;48.772;8.846;2023-03-23T09:02:26;1.30;;;1.20;;
253;SDS011;590;48.772;8.846;2023-03-23T09:04:56;1.20;;;1.10;;
253;SDS011;590;48.772;8.846;2023-03-23T09:07:23;1.50;;;1.40;;
253;SDS011;590;48.772;8.846;2023-03-23T09:09:50;1.40;;;1.30;;
253;SDS011;590;48.772;8.846;2023-03-23T09:12:17;1.27;;;1.17;;
253;SDS011;590;48.772;8.846;2023-03-23T09:14:46;1.43;;;1.33;;
253;SDS011;590;48.772;8.846;2023-03-23T09:17:13;1.40;;;1.30;;
253;SDS011;590;48.772;8.846;2023-03-23T09:19:41;1.07;;;0.97;;
253;SDS011;590;48.772;8.846;2023-03-23T09:22:08;1.30;;;1.10;;
253;SDS011;590;48.772;8.846;2023-03-23T09:24:35;1.40;;;1.30;;
253;SDS011;590;48.772;8.846;2023-03-23T09:27:02;1.50;;;1.40;;
253;SDS011;590;48.772;8.846;2023-03-23T09:29:29;1.40;;;1.30;;
253;SDS011;590;48.772;8.846;2023-03-23T09:31:56;1.50;;;1.40;;
253;SDS011;590;48.772;8.846;2023-03-23T09:34:23;0.97;;;0.87;;
253;SDS011;590;48.772;8.846;2023-03-23T09:36:51;1.20;;;1.10;;
253;SDS011;590;48.772;8.846;2023-03-23T09:39:18;1.20;;;1.10;;
253;SDS011;590;48.772;8.846;2023-03-23T09:42:02;1.40;;;1.30;;
253;SDS011;590;48.772;8.846;2023-03-23T09:44:55;1.30;;;1.20;;
253;SDS011;590;48.772;8.846;2023-03-23T09:47:30;1.60;;;1.50;;
253;SDS011;590;48.772;8.846;2023-03-23T09:50:04;1.90;;;1.20;;
253;SDS011;590;48.772;8.846;2023-03-23T09:52:39;1.37;;;1.27;;
253;SDS011;590;48.772;8.846;2023-03-23T09:55:11;1.30;;;1.20;;
253;SDS011;590;48.772;8.846;2023-03-23T09:57:43;1.30;;;1.20;;
253;SDS011;590;48.772;8.846;2023-03-23T10:00:16;1.20;;;1.10;;
253;SDS011;590;48.772;8.846;2023-03-23T10:02:49;1.40;;;1.07;;
253;SDS011;590;48.772;8.846;2023-03-23T10:05:27;1.20;;;1.10;;
253;SDS011;590;48.772;8.846;2023-03-23T10:07:59;1.67;;;1.57;;
253;SDS011;590;48.772;8.846;2023-03-23T10:10:31;1.57;;;1.47;;
253;SDS011;590;48.772;8.846;2023-03-23T10:13:04;1.37;;;1.30;;
253;SDS011;590;48.772;8.846;2023-03-23T10:15:38;1.37;;;1.27;;
253;SDS011;590;48.772;8.846;2023-03-23T10:18:08;0.90;;;0.80;;
253;SDS011;590;48.772;8.846;2023-03-23T10:20:42;0.90;;;0.83;;
253;SDS011;590;48.772;8.846;2023-03-23T10:23:22;1.43;;;1.33;;
253;SDS011;590;48.772;8.846;2023-03-23T10:26:04;1.17;;;1.07;;
253;SDS011;590;48.772;8.846;2023-03-23T10:28:35;1.40;;;1.30;;
253;SDS011;590;48.772;8.846;2023-03-23T10:31:04;1.47;;;1.40;;
253;SDS011;590;48.772;8.846;2023-03-23T10:33:37;1.20;;;1.10;;
253;SDS011;590;48.772;8.846;2023-03-23T10:36:08;1.40;;;1.30;;
253;SDS011;590;48.772;8.846;2023-03-23T10:38:41;1.50;;;1.40;;
253;SDS011;590;48.772;8.846;2023-03-23T10:41:12;1.47;;;1.37;;
253;SDS011;590;48.772;8.846;2023-03-23T10:43:42;1.20;;;1.10;;
253;SDS011;590;48.772;8.846;2023-03-23T10:46:15;1.67;;;1.57;;
253;SDS011;590;48.772;8.846;2023-03-23T10:48:53;1.43;;;1.37;;
253;SDS011;590;48.772;8.846;2023-03-23T10:51:23;1.20;;;1.10;;
253;SDS011;590;48.772;8.846;2023-03-23T10:53:58;1.20;;;1.10;;
253;SDS011;590;48.772;8.846;2023-03-23T10:56:27;1.20;;;1.10;;
253;SDS011;590;48.772;8.846;2023-03-23T10:58:55;1.30;;;1.20;;
253;SDS011;590;48.772;8.846;2023-03-23T11:01:28;1.40;;;1.20;;
253;SDS011;590;48.772;8.846;2023-03-23T11:03:57;1.27;;;1.17;;
253;SDS011;590;48.772;8.846;2023-03-23T11:06:26;1.37;;;1.27;;
253;SDS011;590;48.772;8.846;2023-03-23T11:08:56;1.93;;;1.50;;
253;SDS011;590;48.772;8.846;2023-03-23T11:11:27;1.47;;;1.37;;
253;SDS011;590;48.772;8.846;2023-03-23T11:13:59;1.30;;;1.20;;
253;SDS011;590;48.772;8.846;2023-03-23T11:16:27;1.10;;;1.03;;
253;SDS011;590;48.772;8.846;2023-03-23T11:18:56;1.43;;;1.33;;
253;SDS011;590;48.772;8.846;2023-03-23T11:21:24;1.90;;;1.47;;
253;SDS011;590;48.772;8.846;2023-03-23T11:23:53;1.13;;;1.03;;
253;SDS011;590;48.772;8.846;2023-03-23T11:26:24;1.50;;;1.40;;
253;SDS011;590;48.772;8.846;2023-03-23T11:28:55;1.30;;;1.20;;
253;SDS011;590;48.772;8.846;2023-03-23T11:31:24;1.37;;;1.27;;
253;SDS011;590;48.772;8.846;2023-03-23T11:33:56;1.30;;;1.20;;
253;SDS011;590;48.772;8.846;2023-03-23T11:36:33;1.20;;;1.10;;
253;SDS011;590;48.772;8.846;2023-03-23T11:39:02;1.23;;;1.13;;
253;SDS011;590;48.772;8.846;2023-03-23T11:41:33;1.50;;;1.40;;
253;SDS011;590;48.772;8.846;2023-03-23T11:44:09;1.10;;;1.00;;
253;SDS011;590;48.772;8.846;2023-03-23T11:46:40;1.10;;;1.00;;
253;SDS011;590;48.772;8.846;2023-03-23T11:49:16;1.20;;;1.10;;
253;SDS011;590;48.772;8.846;2023-03-23T11:51:49;1.50;;;1.40;;
253;SDS011;590;48.772;8.846;2023-03-23T11:54:21;1.87;;;1.77;;
253;SDS011;590;48.772;8.846;2023-03-23T11:56:56;1.50;;;0.97;;
253;SDS011;590;48.772;8.846;2023-03-23T11:59:27;1.20;;;1.10;;
253;SDS011;590;48.772;8.846;2023-03-23T12:01:58;1.03;;;0.93;;
253;SDS011;590;48.772;8.846;2023-03-23T12:04:38;1.13;;;1.03;;
253;SDS011;590;48.772;8.846;2023-03-23T12:07:35;1.10;;;1.00;;
253;SDS011;590;48.772;8.846;2023-03-23T12:10:22;1.20;;;1.20;;
253;SDS011;590;48.772;8.846;2023-03-23T12:12:58;1.17;;;1.07;;
253;SDS011;590;48.772;8.846;2023-03-23T12:15:38;1.30;;;1.20;;
253;SDS011;590;48.772;8.846;2023-03-23T12:18:12;1.10;;;1.03;;
253;SDS011;590;48.772;8.846;2023-03-23T12:20:47;1.27;;;1.17;;
253;SDS011;590;48.772;8.846;2023-03-23T12:23:23;1.50;;;1.40;;
253;SDS011;590;48.772;8.846;2023-03-23T12:26:08;1.33;;;1.23;;
253;SDS011;590;48.772;8.846;2023-03-23T12:28:48;1.23;;;1.13;;
253;SDS011;590;48.772;8.846;2023-03-23T12:31:25;1.43;;;1.33;;
253;SDS011;590;48.772;8.846;2023-03-23T12:33:59;1.10;;;1.00;;
253;SDS011;590;48.772;8.846;2023-03-23T12:36:37;1.10;;;1.00;;
253;SDS011;590;48.772;8.846;2023-03-23T12:42:16;1.27;;;1.17;;
253;SDS011;590;48.772;8.846;2023-03-23T12:44:53;1.60;;;1.50;;
253;SDS011;590;48.772;8.846;2023-03-23T12:47:29;1.17;;;1.07;;
253;SDS011;590;48.772;8.846;2023-03-23T12:50:03;1.40;;;1.30;;
253;SDS011;590;48.772;8.846;2023-03-23T12:52:35;1.00;;;0.90;;
253;SDS011;590;48.772;8.846;2023-03-23T12:55:13;1.20;;;1.10;;
253;SDS011;590;48.772;8.846;2023-03-23T12:57:46;1.30;;;1.20;;
253;SDS011;590;48.772;8.846;2023-03-23T13:00:20;1.10;;;1.00;;
253;SDS011;590;48.772;8.846;2023-03-23T13:02:50;0.90;;;0.80;;
253;SDS011;590;48.772;8.846;2023-03-23T13:05:27;1.27;;;1.20;;
253;SDS011;590;48.772;8.846;2023-03-23T13:08:00;0.80;;;0.80;;
253;SDS011;590;48.772;8.846;2023-03-23T13:10:32;1.20;;;1.10;;
253;SDS011;590;48.772;8.846;2023-03-23T13:13:04;1.10;;;1.00;;
253;SDS011;590;48.772;8.846;2023-03-23T13:15:40;1.50;;;1.40;;
253;SDS011;590;48.772;8.846;2023-03-23T13:18:16;1.43;;;1.33;;
253;SDS011;590;48.772;8.846;2023-03-23T13:20:55;1.23;;;1.13;;
253;SDS011;590;48.772;8.846;2023-03-23T13:23:28;1.20;;;1.10;;
253;SDS011;590;48.772;8.846;2023-03-23T13:26:00;1.40;;;1.30;;
253;SDS011;590;48.772;8.846;2023-03-23T13:28:29;1.27;;;1.27;;
253;SDS011;590;48.772;8.846;2023-03-23T13:31:00;1.10;;;1.07;;
253;SDS011;590;48.772;8.846;2023-03-23T13:33:29;1.33;;;1.23;;
253;SDS011;590;48.772;8.846;2023-03-23T13:36:02;1.53;;;1.43;;
253;SDS011;590;48.772;8.846;2023-03-23T13:38:35;1.10;;;1.00;;
253;SDS011;590;48.772;8.846;2023-03-23T13:41:09;1.17;;;1.07;;
253;SDS011;590;48.772;8.846;2023-03-23T13:43:38;1.43;;;1.33;;
253;SDS011;590;48.772;8.846;2023-03-23T13:46:11;1.17;;;1.10;;
253;SDS011;590;48.772;8.846;2023-03-23T13:48:50;1.07;;;0.97;;
253;SDS011;590;48.772;8.846;2023-03-23T13:51:33;1.20;;;1.10;;
253;SDS011;590;48.772;8.846;2023-03-23T13:54:12;1.57;;;1.47;;
253;SDS011;590;48.772;8.846;2023-03-23T13:56:48;1.30;;;1.20;;
253;SDS011;590;48.772;8.846;2023-03-23T13:59:31;1.13;;;1.07;;
253;SDS011;590;48.772;8.846;2023-03-23T14:05:08;1.20;;;1.10;;
253;SDS011;590;48.772;8.846;2023-03-23T14:10:19;1.30;;;1.20;;
253;SDS011;590;48.772;8.846;2023-03-23T14:12:48;1.33;;;1.23;;
253;SDS011;590;48.772;8.846;2023-03-23T14:15:18;1.10;;;1.00;;
253;SDS011;590;48.772;8.846;2023-03-23T14:17:47;1.37;;;1.27;;
253;SDS011;590;48.772;8.846;2023-03-23T14:20:19;1.40;;;1.30;;
253;SDS011;590;48.772;8.846;2023-03-23T14:22:53;1.10;;;1.00;;
253;SDS011;590;48.772;8.846;2023-03-23T14:25:22;0.90;;;0.80;;
253;SDS011;590;48.772;8.846;2023-03-23T14:27:52;1.17;;;1.07;;
253;SDS011;590;48.772;8.846;2023-03-23T14:30:20;1.43;;;1.33;;
253;SDS011;590;48.772;8.846;2023-03-23T14:32:51;1.53;;;1.50;;
253;SDS011;590;48.772;8.846;2023-03-23T14:35:22;1.57;;;1.47;;
253;SDS011;590;48.772;8.846;2023-03-23T14:37:52;1.40;;;1.30;;
253;SDS011;590;48.772;8.846;2023-03-23T14:40:19;1.20;;;1.10;;
253;SDS011;590;48.772;8.846;2023-03-23T14:42:46;1.20;;;1.10;;
253;SDS011;590;48.772;8.846;2023-03-23T14:45:15;1.30;;;1.20;;
253;SDS011;590;48.772;8.846;2023-03-23T14:47:44;1.20;;;1.10;;
253;SDS011;590;48.772;8.846;2023-03-23T14:50:25;0.90;;;0.80;;
253;SDS011;590;48.772;8.846;2023-03-23T14:52:56;1.43;;;1.27;;
253;SDS011;590;48.772;8.846;2023-03-23T14:55:25;1.20;;;1.10;;
253;SDS011;590;48.772;8.846;2023-03-23T14:57:56;1.00;;;0.90;;
253;SDS011;590;48.772;8.846;2023-03-23T15:00:33;1.50;;;1.40;;
253;SDS011;590;48.772;8.846;2023-03-23T15:03:05;1.20;;;1.10;;
253;SDS011;590;48.772;8.846;2023-03-23T15:05:40;1.27;;;1.20;;
253;SDS011;590;48.772;8.846;2023-03-23T15:08:11;1.33;;;1.23;;
253;SDS011;590;48.772;8.846;2023-03-23T15:10:40;1.50;;;1.40;;
253;SDS011;590;48.772;8.846;2023-03-23T15:13:09;2.53;;;1.30;;
253;SDS011;590;48.772;8.846;2023-03-23T15:15:38;1.73;;;1.30;;
253;SDS011;590;48.772;8.846;2023-03-23T15:18:16;1.03;;;0.93;;
253;SDS011;590;48.772;8.846;2023-03-23T15:20:56;1.37;;;1.03;;
253;SDS011;590;48.772;8.846;2023-03-23T15:23:26;1.33;;;1.20;;
253;SDS011;590;48.772;8.846;2023-03-23T15:25:55;1.50;;;1.40;;
253;SDS011;590;48.772;8.846;2023-03-23T15:28:28;1.43;;;1.33;;
253;SDS011;590;48.772;8.846;2023-03-23T15:30:58;1.50;;;1.40;;
253;SDS011;590;48.772;8.846;2023-03-23T15:33:32;1.33;;;1.23;;
253;SDS011;590;48.772;8.846;2023-03-23T15:36:05;1.50;;;1.40;;
253;SDS011;590;48.772;8.846;2023-03-23T15:38:34;1.30;;;1.20;;
253;SDS011;590;48.772;8.846;2023-03-23T15:41:03;1.17;;;1.07;;
253;SDS011;590;48.772;8.846;2023-03-23T15:43:32;1.33;;;1.23;;
253;SDS011;590;48.772;8.846;2023-03-23T15:46:00;1.50;;;1.40;;
253;SDS011;590;48.772;8.846;2023-03-23T15:48:30;1.47;;;1.37;;
253;SDS011;590;48.772;8.846;2023-03-23T15:50:58;1.47;;;1.17;;
253;SDS011;590;48.772;8.846;2023-03-23T15:53:31;1.20;;;1.13;;
253;SDS011;590;48.772;8.846;2023-03-23T15:55:59;1.23;;;1.13;;
253;SDS011;590;48.772;8.846;2023-03-23T15:58:27;1.50;;;1.40;;
253;SDS011;590;48.772;8.846;2023-03-23T16:00:56;1.57;;;1.47;;
253;SDS011;590;48.772;8.846;2023-03-23T16:03:27;1.40;;;1.30;;
253;SDS011;590;48.772;8.846;2023-03-23T16:06:01;1.10;;;1.10;;
253;SDS011;590;48.772;8.846;2023-03-23T16:08:30;1.60;;;1.50;;
253;SDS011;590;48.772;8.846;2023-03-23T16:10:58;1.33;;;1.23;;
253;SDS011;590;48.772;8.846;2023-03-23T16:13:26;1.50;;;1.40;;
253;SDS011;590;48.772;8.846;2023-03-23T16:15:54;1.30;;;1.20;;
253;SDS011;590;48.772;8.846;2023-03-23T16:18:22;1.17;;;1.07;;